sensor_id;sensor_type;location;lat;lon;timestamp;pressure;altitude;pressure_sealevel;temperature;humidity
72308;BME280;60257;42.638;23.376;2023-03-14T00:01:19;94818.78;;;2.92;52.30
72308;BME280;60257;42.638;23.376;2023-03-14T00:03:45;94824.78;;;2.89;51.97
72308;BME280;60257;42.638;23.376;2023-03-14T00:06:12;94822.38;;;2.87;52.55
72308;BME280;60257;42.638;23.376;2023-03-14T00:08:38;94811.44;;;2.79;52.04
72308;BME280;60257;42.638;23.376;2023-03-14T00:11:18;94798.66;;;2.79;52.11
72308;BME280;60257;42.638;23.376;2023-03-14T00:13:49;94794.66;;;2.77;52.40
72308;BME280;60257;42.638;23.376;2023-03-14T00:16:15;94795.53;;;2.72;52.32
72308;BME280;60257;42.638;23.376;2023-03-14T00:18:41;94789.81;;;2.74;52.00
72308;BME280;60257;42.638;23.376;2023-03-14T00:21:08;94800.13;;;2.71;52.18
72308;BME280;60257;42.638;23.376;2023-03-14T00:23:36;94785.34;;;2.64;52.09
72308;BME280;60257;42.638;23.376;2023-03-14T00:26:05;94781.69;;;2.74;51.86
72308;BME280;60257;42.638;23.376;2023-03-14T00:28:30;94761.78;;;2.64;52.44
72308;BME280;60257;42.638;23.376;2023-03-14T00:30:56;94757.47;;;2.63;53.49
72308;BME280;60257;42.638;23.376;2023-03-14T00:33:22;94766.13;;;2.65;52.47
72308;BME280;60257;42.638;23.376;2023-03-14T00:36:04;94754.28;;;2.61;52.69
72308;BME280;60257;42.638;23.376;2023-03-14T00:38:31;94740.81;;;2.56;53.01
72308;BME280;60257;42.638;23.376;2023-03-14T00:40:57;94744.31;;;2.57;52.51
72308;BME280;60257;42.638;23.376;2023-03-14T00:43:23;94764.06;;;2.57;52.71
72308;BME280;60257;42.638;23.376;2023-03-14T00:45:49;94750.91;;;2.51;53.24
72308;BME280;60257;42.638;23.376;2023-03-14T00:48:16;94750.06;;;2.55;53.06
72308;BME280;60257;42.638;23.376;2023-03-14T00:50:42;94738.72;;;2.53;53.12
72308;BME280;60257;42.638;23.376;2023-03-14T00:53:07;94747.78;;;2.62;52.76
72308;BME280;60257;42.638;23.376;2023-03-14T00:55:37;94747.25;;;2.60;52.79
72308;BME280;60257;42.638;23.376;2023-03-14T00:58:02;94738.03;;;2.61;52.72
72308;BME280;60257;42.638;23.376;2023-03-14T01:00:28;94729.13;;;2.61;52.78
72308;BME280;60257;42.638;23.376;2023-03-14T01:02:53;94743.06;;;2.68;52.29
72308;BME280;60257;42.638;23.376;2023-03-14T01:05:19;94735.03;;;2.63;52.39
72308;BME280;60257;42.638;23.376;2023-03-14T01:07:44;94729.50;;;2.54;52.52
72308;BME280;60257;42.638;23.376;2023-03-14T01:10:10;94744.75;;;2.64;52.22
72308;BME280;60257;42.638;23.376;2023-03-14T01:12:36;94722.25;;;2.50;51.86
72308;BME280;60257;42.638;23.376;2023-03-14T01:15:02;94722.31;;;2.45;51.91
72308;BME280;60257;42.638;23.376;2023-03-14T01:17:27;94743.03;;;2.36;52.16
72308;BME280;60257;42.638;23.376;2023-03-14T01:19:53;94749.31;;;2.12;52.50
72308;BME280;60257;42.638;23.376;2023-03-14T01:22:18;94718.84;;;2.07;52.25
72308;BME280;60257;42.638;23.376;2023-03-14T01:24:43;94730.75;;;2.24;52.20
72308;BME280;60257;42.638;23.376;2023-03-14T01:27:09;94721.03;;;2.23;52.43
72308;BME280;60257;42.638;23.376;2023-03-14T01:29:34;94703.63;;;2.11;52.75
72308;BME280;60257;42.638;23.376;2023-03-14T01:32:00;94715.41;;;2.20;53.95
72308;BME280;60257;42.638;23.376;2023-03-14T01:34:25;94708.81;;;2.07;53.78
72308;BME280;60257;42.638;23.376;2023-03-14T01:36:51;94716.78;;;2.17;54.36
72308;BME280;60257;42.638;23.376;2023-03-14T01:39:16;94699.31;;;2.10;54.42
72308;BME280;60257;42.638;23.376;2023-03-14T01:41:41;94715.41;;;2.20;54.87
72308;BME280;60257;42.638;23.376;2023-03-14T01:44:11;94703.47;;;2.21;54.32
72308;BME280;60257;42.638;23.376;2023-03-14T01:46:39;94703.41;;;2.07;54.76
72308;BME280;60257;42.638;23.376;2023-03-14T01:51:59;94703.63;;;1.92;55.14
72308;BME280;60257;42.638;23.376;2023-03-14T01:59:30;94700.19;;;1.68;56.42
72308;BME280;60257;42.638;23.376;2023-03-14T02:01:57;94687.22;;;1.65;57.24
72308;BME280;60257;42.638;23.376;2023-03-14T02:04:25;94697.88;;;1.56;56.64
72308;BME280;60257;42.638;23.376;2023-03-14T02:07:09;94712.84;;;1.48;57.32
72308;BME280;60257;42.638;23.376;2023-03-14T02:09:39;94697.88;;;1.56;57.04
72308;BME280;60257;42.638;23.376;2023-03-14T02:12:06;94691.16;;;1.53;57.13
72308;BME280;60257;42.638;23.376;2023-03-14T02:14:34;94703.72;;;1.63;57.84
72308;BME280;60257;42.638;23.376;2023-03-14T02:17:03;94688.63;;;1.62;57.83
72308;BME280;60257;42.638;23.376;2023-03-14T02:22:12;94691.09;;;1.59;58.61
72308;BME280;60257;42.638;23.376;2023-03-14T02:24:58;94697.84;;;1.61;58.91
72308;BME280;60257;42.638;23.376;2023-03-14T02:27:28;94680.03;;;1.55;58.73
72308;BME280;60257;42.638;23.376;2023-03-14T02:30:04;94694.25;;;1.66;58.76
72308;BME280;60257;42.638;23.376;2023-03-14T02:32:32;94687.59;;;1.58;58.50
72308;BME280;60257;42.638;23.376;2023-03-14T02:35:00;94691.09;;;1.59;58.65
72308;BME280;60257;42.638;23.376;2023-03-14T02:37:35;94685.75;;;1.53;57.88
72308;BME280;60257;42.638;23.376;2023-03-14T02:40:02;94688.97;;;1.55;58.51
72308;BME280;60257;42.638;23.376;2023-03-14T02:42:29;94675.53;;;1.50;58.35
72308;BME280;60257;42.638;23.376;2023-03-14T02:45:25;94698.31;;;1.21;58.25
72308;BME280;60257;42.638;23.376;2023-03-14T02:47:59;94703.28;;;1.32;58.04
72308;BME280;60257;42.638;23.376;2023-03-14T02:50:31;94700.72;;;1.22;58.01
72308;BME280;60257;42.638;23.376;2023-03-14T02:52:58;94700.13;;;1.25;58.22
72308;BME280;60257;42.638;23.376;2023-03-14T02:55:24;94704.41;;;1.31;58.49
72308;BME280;60257;42.638;23.376;2023-03-14T02:57:52;94691.19;;;1.30;58.09
72308;BME280;60257;42.638;23.376;2023-03-14T03:00:18;94705.03;;;1.47;58.21
72308;BME280;60257;42.638;23.376;2023-03-14T03:02:45;94713.28;;;1.55;57.61
72308;BME280;60257;42.638;23.376;2023-03-14T03:05:10;94707.03;;;1.60;57.40
72308;BME280;60257;42.638;23.376;2023-03-14T03:07:36;94694.69;;;1.54;57.69
72308;BME280;60257;42.638;23.376;2023-03-14T03:10:02;94700.66;;;1.27;58.72
72308;BME280;60257;42.638;23.376;2023-03-14T03:12:27;94716.59;;;1.29;58.76
72308;BME280;60257;42.638;23.376;2023-03-14T03:14:53;94679.94;;;1.23;58.28
72308;BME280;60257;42.638;23.376;2023-03-14T03:17:18;94712.16;;;1.38;58.67
72308;BME280;60257;42.638;23.376;2023-03-14T03:19:43;94701.41;;;1.09;59.58
72308;BME280;60257;42.638;23.376;2023-03-14T03:22:09;94698.19;;;0.83;60.48
72308;BME280;60257;42.638;23.376;2023-03-14T03:24:34;94690.28;;;0.87;60.38
72308;BME280;60257;42.638;23.376;2023-03-14T03:27:00;94698.13;;;0.88;59.94
72308;BME280;60257;42.638;23.376;2023-03-14T03:29:25;94690.88;;;0.84;60.24
72308;BME280;60257;42.638;23.376;2023-03-14T03:31:51;94706.88;;;1.04;59.90
72308;BME280;60257;42.638;23.376;2023-03-14T03:34:17;94698.03;;;0.98;59.89
72308;BME280;60257;42.638;23.376;2023-03-14T03:36:42;94683.13;;;1.01;59.66
72308;BME280;60257;42.638;23.376;2023-03-14T03:39:08;94703.25;;;1.13;59.99
72308;BME280;60257;42.638;23.376;2023-03-14T03:41:33;94695.34;;;1.22;60.36
72308;BME280;60257;42.638;23.376;2023-03-14T03:43:59;94698.88;;;1.17;59.94
72308;BME280;60257;42.638;23.376;2023-03-14T03:46:24;94689.03;;;1.03;60.18
72308;BME280;60257;42.638;23.376;2023-03-14T03:48:57;94693.88;;;1.06;60.05
72308;BME280;60257;42.638;23.376;2023-03-14T03:51:23;94713.78;;;0.86;60.61
72308;BME280;60257;42.638;23.376;2023-03-14T03:53:49;94705.28;;;0.74;61.35
72308;BME280;60257;42.638;23.376;2023-03-14T03:56:15;94706.00;;;0.85;60.70
72308;BME280;60257;42.638;23.376;2023-03-14T03:58:41;94716.19;;;0.93;60.42
72308;BME280;60257;42.638;23.376;2023-03-14T04:01:08;94721.66;;;0.83;61.01
72308;BME280;60257;42.638;23.376;2023-03-14T04:03:34;94721.13;;;0.81;61.02
72308;BME280;60257;42.638;23.376;2023-03-14T04:06:10;94722.47;;;0.83;61.22
72308;BME280;60257;42.638;23.376;2023-03-14T04:08:37;94722.19;;;0.85;61.38
72308;BME280;60257;42.638;23.376;2023-03-14T04:11:03;94711.66;;;0.83;61.48
72308;BME280;60257;42.638;23.376;2023-03-14T04:13:29;94714.31;;;0.88;61.05
72308;BME280;60257;42.638;23.376;2023-03-14T04:15:55;94705.69;;;0.86;61.20
72308;BME280;60257;42.638;23.376;2023-03-14T04:18:21;94704.94;;;0.81;61.53
72308;BME280;60257;42.638;23.376;2023-03-14T04:20:51;94709.50;;;0.85;61.03
72308;BME280;60257;42.638;23.376;2023-03-14T04:23:17;94694.88;;;0.86;61.32
72308;BME280;60257;42.638;23.376;2023-03-14T04:25:42;94680.59;;;0.86;60.97
72308;BME280;60257;42.638;23.376;2023-03-14T04:28:08;94697.47;;;0.72;62.13
72308;BME280;60257;42.638;23.376;2023-03-14T04:30:33;94683.28;;;0.62;62.14
72308;BME280;60257;42.638;23.376;2023-03-14T04:32:59;94683.69;;;0.74;62.45
72308;BME280;60257;42.638;23.376;2023-03-14T04:35:24;94667.56;;;0.69;62.17
72308;BME280;60257;42.638;23.376;2023-03-14T04:37:50;94670.47;;;0.72;61.80
72308;BME280;60257;42.638;23.376;2023-03-14T04:40:17;94672.53;;;0.81;62.02
72308;BME280;60257;42.638;23.376;2023-03-14T04:42:43;94665.78;;;0.54;62.02
72308;BME280;60257;42.638;23.376;2023-03-14T04:45:08;94664.19;;;0.53;62.16
72308;BME280;60257;42.638;23.376;2023-03-14T04:47:34;94666.91;;;0.48;62.58
72308;BME280;60257;42.638;23.376;2023-03-14T04:49:59;94677.56;;;0.63;62.25
72308;BME280;60257;42.638;23.376;2023-03-14T04:52:26;94676.47;;;0.64;62.58
72308;BME280;60257;42.638;23.376;2023-03-14T04:54:52;94642.53;;;0.58;62.50
72308;BME280;60257;42.638;23.376;2023-03-14T04:57:17;94666.41;;;0.75;62.56
72308;BME280;60257;42.638;23.376;2023-03-14T04:59:43;94653.19;;;0.73;62.72
72308;BME280;60257;42.638;23.376;2023-03-14T05:02:08;94662.91;;;0.74;62.63
72308;BME280;60257;42.638;23.376;2023-03-14T05:04:34;94652.28;;;0.83;62.69
72308;BME280;60257;42.638;23.376;2023-03-14T05:07:00;94645.44;;;0.67;62.65
72308;BME280;60257;42.638;23.376;2023-03-14T05:09:25;94662.19;;;0.64;62.97
72308;BME280;60257;42.638;23.376;2023-03-14T05:11:51;94651.09;;;0.65;62.42
72308;BME280;60257;42.638;23.376;2023-03-14T05:14:16;94668.63;;;0.68;62.30
72308;BME280;60257;42.638;23.376;2023-03-14T05:16:42;94664.44;;;0.81;62.49
72308;BME280;60257;42.638;23.376;2023-03-14T05:19:08;94660.22;;;0.98;62.09
72308;BME280;60257;42.638;23.376;2023-03-14T05:21:33;94637.28;;;0.96;62.26
72308;BME280;60257;42.638;23.376;2023-03-14T05:23:58;94653.19;;;1.21;61.78
72308;BME280;60257;42.638;23.376;2023-03-14T05:26:24;94657.56;;;1.17;61.67
72308;BME280;60257;42.638;23.376;2023-03-14T05:28:49;94638.59;;;1.22;61.36
72308;BME280;60257;42.638;23.376;2023-03-14T05:31:15;94642.94;;;1.42;61.07
72308;BME280;60257;42.638;23.376;2023-03-14T05:33:40;94634.97;;;1.50;60.56
72308;BME280;60257;42.638;23.376;2023-03-14T05:36:07;94637.28;;;1.62;59.93
72308;BME280;60257;42.638;23.376;2023-03-14T05:38:32;94641.28;;;1.83;59.94
72308;BME280;60257;42.638;23.376;2023-03-14T05:40:58;94648.13;;;1.94;59.89
72308;BME280;60257;42.638;23.376;2023-03-14T05:43:23;94649.25;;;1.93;59.67
72308;BME280;60257;42.638;23.376;2023-03-14T05:45:49;94643.25;;;1.97;59.15
72308;BME280;60257;42.638;23.376;2023-03-14T05:48:14;94642.72;;;2.13;59.06
72308;BME280;60257;42.638;23.376;2023-03-14T05:50:40;94638.03;;;2.19;59.36
72308;BME280;60257;42.638;23.376;2023-03-14T05:53:05;94644.47;;;2.23;59.54
72308;BME280;60257;42.638;23.376;2023-03-14T05:55:30;94645.09;;;2.33;59.75
72308;BME280;60257;42.638;23.376;2023-03-14T05:57:56;94640.03;;;2.46;59.71
72308;BME280;60257;42.638;23.376;2023-03-14T06:00:21;94640.41;;;2.39;60.00
72308;BME280;60257;42.638;23.376;2023-03-14T06:02:47;94639.91;;;2.37;59.80
72308;BME280;60257;42.638;23.376;2023-03-14T06:05:12;94648.22;;;2.41;59.62
72308;BME280;60257;42.638;23.376;2023-03-14T06:07:38;94630.59;;;2.43;58.98
72308;BME280;60257;42.638;23.376;2023-03-14T06:10:04;94633.44;;;2.52;59.02
72308;BME280;60257;42.638;23.376;2023-03-14T06:12:30;94632.22;;;2.58;58.24
72308;BME280;60257;42.638;23.376;2023-03-14T06:14:55;94643.69;;;2.68;57.88
72308;BME280;60257;42.638;23.376;2023-03-14T06:17:21;94636.38;;;2.69;57.95
72308;BME280;60257;42.638;23.376;2023-03-14T06:19:46;94630.88;;;2.74;57.67
72308;BME280;60257;42.638;23.376;2023-03-14T06:22:12;94635.69;;;2.77;57.21
72308;BME280;60257;42.638;23.376;2023-03-14T06:24:37;94628.03;;;2.65;56.96
72308;BME280;60257;42.638;23.376;2023-03-14T06:27:03;94641.00;;;2.68;56.66
72308;BME280;60257;42.638;23.376;2023-03-14T06:29:29;94621.13;;;2.59;57.17
72308;BME280;60257;42.638;23.376;2023-03-14T06:31:55;94651.03;;;2.82;56.77
72308;BME280;60257;42.638;23.376;2023-03-14T06:34:20;94646.13;;;2.84;56.78
72308;BME280;60257;42.638;23.376;2023-03-14T06:36:46;94648.22;;;2.87;56.90
72308;BME280;60257;42.638;23.376;2023-03-14T06:39:11;94656.84;;;2.89;56.14
72308;BME280;60257;42.638;23.376;2023-03-14T06:41:37;94637.81;;;2.94;56.07
72308;BME280;60257;42.638;23.376;2023-03-14T06:44:02;94638.41;;;3.04;55.91
72308;BME280;60257;42.638;23.376;2023-03-14T06:46:28;94635.13;;;3.21;56.06
72308;BME280;60257;42.638;23.376;2023-03-14T06:48:53;94621.66;;;3.30;55.44
72308;BME280;60257;42.638;23.376;2023-03-14T06:51:19;94639.72;;;3.48;55.37
72308;BME280;60257;42.638;23.376;2023-03-14T06:53:44;94629.56;;;3.54;54.45
72308;BME280;60257;42.638;23.376;2023-03-14T06:56:10;94620.03;;;3.56;54.69
72308;BME280;60257;42.638;23.376;2023-03-14T06:58:36;94615.00;;;3.63;53.71
72308;BME280;60257;42.638;23.376;2023-03-14T07:01:01;94623.44;;;3.62;53.09
72308;BME280;60257;42.638;23.376;2023-03-14T07:03:27;94614.88;;;3.68;52.82
72308;BME280;60257;42.638;23.376;2023-03-14T07:05:53;94617.91;;;3.67;52.81
72308;BME280;60257;42.638;23.376;2023-03-14T07:08:18;94617.97;;;3.75;52.66
72308;BME280;60257;42.638;23.376;2023-03-14T07:10:44;94599.19;;;3.79;52.63
72308;BME280;60257;42.638;23.376;2023-03-14T07:13:10;94605.47;;;3.88;52.57
72308;BME280;60257;42.638;23.376;2023-03-14T07:15:35;94596.53;;;3.87;52.11
72308;BME280;60257;42.638;23.376;2023-03-14T07:18:01;94559.72;;;3.73;52.44
72308;BME280;60257;42.638;23.376;2023-03-14T07:20:26;94588.38;;;4.01;52.59
72308;BME280;60257;42.638;23.376;2023-03-14T07:22:52;94581.03;;;4.02;51.79
72308;BME280;60257;42.638;23.376;2023-03-14T07:25:17;94590.28;;;4.01;51.43
72308;BME280;60257;42.638;23.376;2023-03-14T07:27:44;94597.19;;;4.07;51.36
72308;BME280;60257;42.638;23.376;2023-03-14T07:30:11;94589.84;;;4.07;51.28
72308;BME280;60257;42.638;23.376;2023-03-14T07:32:36;94597.13;;;4.20;51.20
72308;BME280;60257;42.638;23.376;2023-03-14T07:35:02;94597.00;;;4.25;51.15
72308;BME280;60257;42.638;23.376;2023-03-14T07:37:28;94589.97;;;4.24;50.52
72308;BME280;60257;42.638;23.376;2023-03-14T07:39:53;94585.59;;;4.37;50.45
72308;BME280;60257;42.638;23.376;2023-03-14T07:42:19;94580.94;;;4.38;50.27
72308;BME280;60257;42.638;23.376;2023-03-14T07:44:44;94576.19;;;4.43;50.57
72308;BME280;60257;42.638;23.376;2023-03-14T07:47:10;94574.94;;;4.49;49.96
72308;BME280;60257;42.638;23.376;2023-03-14T07:49:35;94579.97;;;4.56;49.79
72308;BME280;60257;42.638;23.376;2023-03-14T07:52:01;94558.53;;;4.54;49.43
72308;BME280;60257;42.638;23.376;2023-03-14T07:54:26;94571.41;;;4.71;49.35
72308;BME280;60257;42.638;23.376;2023-03-14T07:56:52;94563.56;;;4.70;49.40
72308;BME280;60257;42.638;23.376;2023-03-14T07:59:18;94571.13;;;4.81;49.21
72308;BME280;60257;42.638;23.376;2023-03-14T08:01:43;94558.34;;;4.82;48.27
72308;BME280;60257;42.638;23.376;2023-03-14T08:04:09;94568.13;;;4.91;48.40
72308;BME280;60257;42.638;23.376;2023-03-14T08:06:36;94575.06;;;5.06;48.37
72308;BME280;60257;42.638;23.376;2023-03-14T08:09:02;94568.34;;;5.12;47.64
72308;BME280;60257;42.638;23.376;2023-03-14T08:11:27;94548.09;;;5.18;47.92
72308;BME280;60257;42.638;23.376;2023-03-14T08:13:53;94561.56;;;5.40;47.86
72308;BME280;60257;42.638;23.376;2023-03-14T08:16:19;94568.31;;;5.52;48.87
72308;BME280;60257;42.638;23.376;2023-03-14T08:18:45;94563.34;;;5.54;47.94
72308;BME280;60257;42.638;23.376;2023-03-14T08:21:12;94562.25;;;5.63;48.61
72308;BME280;60257;42.638;23.376;2023-03-14T08:23:38;94562.25;;;5.63;47.67
72308;BME280;60257;42.638;23.376;2023-03-14T08:26:03;94563.84;;;5.64;47.69
72308;BME280;60257;42.638;23.376;2023-03-14T08:28:29;94549.78;;;5.71;47.14
72308;BME280;60257;42.638;23.376;2023-03-14T08:30:59;94549.13;;;5.65;46.85
72308;BME280;60257;42.638;23.376;2023-03-14T08:33:27;94552.34;;;5.76;47.02
72308;BME280;60257;42.638;23.376;2023-03-14T08:35:53;94553.00;;;5.90;47.44
72308;BME280;60257;42.638;23.376;2023-03-14T08:38:19;94544.22;;;6.02;47.11
72308;BME280;60257;42.638;23.376;2023-03-14T08:40:44;94548.19;;;6.04;46.56
72308;BME280;60257;42.638;23.376;2023-03-14T08:43:10;94544.22;;;6.02;45.69
72308;BME280;60257;42.638;23.376;2023-03-14T08:45:35;94539.41;;;6.16;46.09
72308;BME280;60257;42.638;23.376;2023-03-14T08:48:01;94516.31;;;6.13;46.03
72308;BME280;60257;42.638;23.376;2023-03-14T08:50:26;94519.66;;;6.28;45.85
72308;BME280;60257;42.638;23.376;2023-03-14T08:52:52;94525.59;;;6.30;45.04
72308;BME280;60257;42.638;23.376;2023-03-14T08:55:17;94509.25;;;6.21;45.02
72308;BME280;60257;42.638;23.376;2023-03-14T08:57:43;94517.72;;;6.37;45.09
72308;BME280;60257;42.638;23.376;2023-03-14T09:00:09;94514.06;;;6.41;44.67
72308;BME280;60257;42.638;23.376;2023-03-14T09:02:37;94503.28;;;6.45;44.61
72308;BME280;60257;42.638;23.376;2023-03-14T09:05:04;94513.88;;;6.46;44.71
72308;BME280;60257;42.638;23.376;2023-03-14T09:07:30;94507.25;;;6.65;44.84
72308;BME280;60257;42.638;23.376;2023-03-14T09:09:55;94491.31;;;6.75;44.31
72308;BME280;60257;42.638;23.376;2023-03-14T09:12:21;94498.50;;;6.88;43.47
72308;BME280;60257;42.638;23.376;2023-03-14T09:14:46;94485.34;;;6.82;42.55
72308;BME280;60257;42.638;23.376;2023-03-14T09:17:11;94483.56;;;6.94;42.44
72308;BME280;60257;42.638;23.376;2023-03-14T09:19:37;94478.03;;;7.12;42.39
72308;BME280;60257;42.638;23.376;2023-03-14T09:22:03;94471.34;;;7.21;41.26
72308;BME280;60257;42.638;23.376;2023-03-14T09:24:28;94464.59;;;7.27;41.42
72308;BME280;60257;42.638;23.376;2023-03-14T09:26:55;94459.88;;;7.37;41.46
72308;BME280;60257;42.638;23.376;2023-03-14T09:29:21;94455.75;;;7.51;41.04
72308;BME280;60257;42.638;23.376;2023-03-14T09:31:47;94448.63;;;7.59;40.63
72308;BME280;60257;42.638;23.376;2023-03-14T09:34:13;94438.50;;;7.59;40.52
72308;BME280;60257;42.638;23.376;2023-03-14T09:36:38;94444.25;;;7.66;40.60
72308;BME280;60257;42.638;23.376;2023-03-14T09:39:05;94432.59;;;7.78;40.43
72308;BME280;60257;42.638;23.376;2023-03-14T09:41:38;94431.31;;;7.96;39.64
72308;BME280;60257;42.638;23.376;2023-03-14T09:44:16;94426.63;;;7.97;39.40
72308;BME280;60257;42.638;23.376;2023-03-14T09:46:48;94416.53;;;7.97;39.41
72308;BME280;60257;42.638;23.376;2023-03-14T09:49:25;94426.44;;;8.14;39.21
72308;BME280;60257;42.638;23.376;2023-03-14T09:51:54;94412.47;;;8.16;38.84
72308;BME280;60257;42.638;23.376;2023-03-14T09:54:47;94400.63;;;8.24;39.03
72308;BME280;60257;42.638;23.376;2023-03-14T09:57:23;94395.13;;;8.44;39.16
72308;BME280;60257;42.638;23.376;2023-03-14T09:59:49;94386.81;;;8.41;39.07
72308;BME280;60257;42.638;23.376;2023-03-14T10:02:22;94391.94;;;8.55;40.10
72308;BME280;60257;42.638;23.376;2023-03-14T10:04:50;94388.78;;;8.65;40.02
72308;BME280;60257;42.638;23.376;2023-03-14T10:07:18;94380.69;;;8.80;39.77
72308;BME280;60257;42.638;23.376;2023-03-14T10:09:50;94367.53;;;8.98;39.97
72308;BME280;60257;42.638;23.376;2023-03-14T10:12:17;94379.41;;;9.02;39.85
72308;BME280;60257;42.638;23.376;2023-03-14T10:14:51;94362.09;;;8.98;40.52
72308;BME280;60257;42.638;23.376;2023-03-14T10:17:21;94348.06;;;9.12;40.39
72308;BME280;60257;42.638;23.376;2023-03-14T10:19:55;94362.81;;;9.35;39.89
72308;BME280;60257;42.638;23.376;2023-03-14T10:22:22;94354.03;;;9.42;40.00
72308;BME280;60257;42.638;23.376;2023-03-14T10:24:54;94351.81;;;9.59;39.90
72308;BME280;60257;42.638;23.376;2023-03-14T10:27:27;94341.59;;;9.72;39.67
72308;BME280;60257;42.638;23.376;2023-03-14T10:30:05;94324.25;;;9.68;39.91
72308;BME280;60257;42.638;23.376;2023-03-14T10:32:34;94330.31;;;9.89;39.72
72308;BME280;60257;42.638;23.376;2023-03-14T10:37:57;94310.81;;;10.07;39.28
72308;BME280;60257;42.638;23.376;2023-03-14T10:40:47;94276.34;;;10.06;38.97
72308;BME280;60257;42.638;23.376;2023-03-14T10:43:17;94289.19;;;10.33;39.09
72308;BME280;60257;42.638;23.376;2023-03-14T10:45:57;94282.09;;;10.48;38.36
72308;BME280;60257;42.638;23.376;2023-03-14T10:48:31;94289.81;;;10.58;38.16
72308;BME280;60257;42.638;23.376;2023-03-14T10:51:10;94280.75;;;10.73;37.77
72308;BME280;60257;42.638;23.376;2023-03-14T10:53:47;94275.34;;;10.61;37.48
72308;BME280;60257;42.638;23.376;2023-03-14T10:56:21;94253.53;;;10.64;38.23
72308;BME280;60257;42.638;23.376;2023-03-14T10:58:53;94257.53;;;10.86;38.05
72308;BME280;60257;42.638;23.376;2023-03-14T11:09:38;94227.22;;;11.17;37.98
72308;BME280;60257;42.638;23.376;2023-03-14T11:15:18;94217.03;;;11.56;36.59
72308;BME280;60257;42.638;23.376;2023-03-14T11:21:15;94194.50;;;11.70;35.33
72308;BME280;60257;42.638;23.376;2023-03-14T11:23:47;94185.09;;;11.71;35.97
72308;BME280;60257;42.638;23.376;2023-03-14T11:26:32;94181.19;;;11.91;36.19
72308;BME280;60257;42.638;23.376;2023-03-14T11:29:08;94162.78;;;11.95;35.19
72308;BME280;60257;42.638;23.376;2023-03-14T11:31:38;94164.56;;;12.07;35.08
72308;BME280;60257;42.638;23.376;2023-03-14T11:34:17;94146.63;;;12.17;34.95
72308;BME280;60257;42.638;23.376;2023-03-14T11:37:33;94145.22;;;12.26;34.74
72308;BME280;60257;42.638;23.376;2023-03-14T11:39:41;94138.31;;;12.36;34.69
72308;BME280;60257;42.638;23.376;2023-03-14T11:42:16;94141.38;;;12.31;34.11
72308;BME280;60257;42.638;23.376;2023-03-14T11:44:44;94118.69;;;12.11;34.18
72308;BME280;60257;42.638;23.376;2023-03-14T11:49:48;94126.03;;;12.30;34.03
72308;BME280;60257;42.638;23.376;2023-03-14T11:55:12;94105.56;;;12.54;33.74
72308;BME280;60257;42.638;23.376;2023-03-14T11:57:42;94095.44;;;12.61;33.79
72308;BME280;60257;42.638;23.376;2023-03-14T12:00:22;94105.84;;;12.79;33.27
72308;BME280;60257;42.638;23.376;2023-03-14T12:08:39;94082.47;;;12.95;32.34
72308;BME280;60257;42.638;23.376;2023-03-14T12:14:02;94074.97;;;12.92;32.82
72308;BME280;60257;42.638;23.376;2023-03-14T12:16:38;94057.78;;;13.02;32.28
72308;BME280;60257;42.638;23.376;2023-03-14T12:21:52;94050.69;;;13.01;32.15
72308;BME280;60257;42.638;23.376;2023-03-14T12:24:23;94040.94;;;13.07;32.18
72308;BME280;60257;42.638;23.376;2023-03-14T12:26:56;94021.50;;;12.93;31.04
72308;BME280;60257;42.638;23.376;2023-03-14T12:29:22;94035.53;;;13.15;31.32
72308;BME280;60257;42.638;23.376;2023-03-14T12:34:38;94031.81;;;13.40;31.01
72308;BME280;60257;42.638;23.376;2023-03-14T12:37:25;94034.63;;;13.44;31.12
72308;BME280;60257;42.638;23.376;2023-03-14T12:40:15;94030.41;;;13.57;31.44
72308;BME280;60257;42.638;23.376;2023-03-14T12:42:57;94018.63;;;13.64;30.38
72308;BME280;60257;42.638;23.376;2023-03-14T12:50:41;94019.38;;;13.57;30.22
72308;BME280;60257;42.638;23.376;2023-03-14T12:58:44;94000.00;;;13.43;30.18
72308;BME280;60257;42.638;23.376;2023-03-14T13:01:17;93989.44;;;13.52;30.43
72308;BME280;60257;42.638;23.376;2023-03-14T13:04:03;93991.53;;;13.69;30.44
72308;BME280;60257;42.638;23.376;2023-03-14T13:12:03;93961.78;;;13.93;28.99
72308;BME280;60257;42.638;23.376;2023-03-14T13:14:31;93963.00;;;14.02;28.98
72308;BME280;60257;42.638;23.376;2023-03-14T13:17:00;93957.97;;;14.15;28.62
72308;BME280;60257;42.638;23.376;2023-03-14T13:19:27;93959.53;;;14.19;28.63
72308;BME280;60257;42.638;23.376;2023-03-14T13:22:20;93961.13;;;14.20;28.48
72308;BME280;60257;42.638;23.376;2023-03-14T13:24:46;93944.91;;;14.05;27.85
72308;BME280;60257;42.638;23.376;2023-03-14T13:27:18;93946.06;;;14.04;27.91
72308;BME280;60257;42.638;23.376;2023-03-14T13:29:48;93934.25;;;14.03;28.00
72308;BME280;60257;42.638;23.376;2023-03-14T13:32:21;93926.41;;;14.12;28.54
72308;BME280;60257;42.638;23.376;2023-03-14T13:34:48;93931.56;;;14.17;28.56
72308;BME280;60257;42.638;23.376;2023-03-14T13:37:20;93926.50;;;14.30;29.01
72308;BME280;60257;42.638;23.376;2023-03-14T13:39:52;93921.44;;;14.39;28.44
72308;BME280;60257;42.638;23.376;2023-03-14T13:42:18;93905.63;;;14.36;28.07
72308;BME280;60257;42.638;23.376;2023-03-14T13:44:44;93901.28;;;14.24;28.15
72308;BME280;60257;42.638;23.376;2023-03-14T13:47:18;93900.88;;;14.22;28.14
72308;BME280;60257;42.638;23.376;2023-03-14T13:49:45;93895.72;;;14.17;28.09
72308;BME280;60257;42.638;23.376;2023-03-14T13:54:54;93889.38;;;14.06;28.08
72308;BME280;60257;42.638;23.376;2023-03-14T13:57:20;93883.44;;;13.94;27.92
72308;BME280;60257;42.638;23.376;2023-03-14T14:00:06;93877.88;;;13.90;28.15
72308;BME280;60257;42.638;23.376;2023-03-14T14:02:36;93877.91;;;13.97;28.73
72308;BME280;60257;42.638;23.376;2023-03-14T14:05:04;93860.19;;;14.02;28.12
72308;BME280;60257;42.638;23.376;2023-03-14T14:07:30;93836.94;;;13.96;28.44
72308;BME280;60257;42.638;23.376;2023-03-14T14:09:56;93836.19;;;14.02;28.98